createdAt,value
2018-08-11T00:00:40.648Z,74.3
2018-08-11T00:01:40.650Z,74.4
2018-08-11T00:02:40.628Z,74.4
2018-08-11T00:03:40.616Z,74.79
2018-08-11T00:04:40.607Z,75.37
2018-08-11T00:05:40.594Z,74.88
2018-08-11T00:06:40.322Z,75.27
2018-08-11T00:07:40.313Z,75.17
2018-08-11T00:08:40.559Z,75.27
2018-08-11T00:09:40.555Z,76.04
2018-08-11T00:10:40.548Z,75.46
2018-08-11T00:11:40.524Z,76.32
2018-08-11T00:12:40.258Z,75.94
2018-08-11T00:13:40.240Z,76.04
2018-08-11T00:14:40.497Z,75.37
2018-08-11T00:15:40.486Z,75.17
2018-08-11T00:16:40.474Z,75.65
2018-08-11T00:17:40.467Z,75.84
2018-08-11T00:18:40.449Z,75.07
2018-08-11T00:19:40.175Z,75.56
2018-08-11T00:20:40.426Z,76.14
2018-08-11T00:21:40.410Z,76.04
2018-08-11T00:22:40.400Z,76.14
2018-08-11T00:23:40.390Z,76.52
2018-08-11T00:24:40.118Z,76.04
2018-08-11T00:25:40.108Z,76.23
2018-08-11T00:26:40.353Z,76.42
2018-08-11T00:27:40.079Z,75.46
2018-08-11T00:28:40.332Z,76.14
2018-08-11T00:29:40.324Z,76.23
2018-08-11T00:30:40.315Z,75.46
2018-08-11T00:31:40.039Z,75.94
2018-08-11T00:32:40.288Z,75.84
2018-08-11T00:33:40.014Z,76.23
2018-08-11T00:34:40.269Z,76.14
2018-08-11T00:35:40.462Z,76.14
2018-08-11T00:36:40.243Z,76.23
2018-08-11T00:37:39.974Z,76.42
2018-08-11T00:38:40.221Z,75.84
2018-08-11T00:39:40.208Z,75.84
2018-08-11T00:40:40.199Z,76.14
2018-08-11T00:41:39.923Z,75.94
2018-08-11T00:42:39.915Z,75.07
2018-08-11T00:43:39.902Z,75.84
2018-08-11T00:44:39.893Z,75.94
2018-08-11T00:45:40.142Z,75.84
2018-08-11T00:46:40.133Z,76.14
2018-08-11T00:47:40.130Z,76.14
2018-08-11T00:48:40.113Z,76.04
2018-08-11T00:49:39.842Z,76.32
2018-08-11T00:50:39.822Z,76.23
2018-08-11T00:51:39.811Z,75.84
2018-08-11T00:52:39.799Z,76.32
2018-08-11T00:53:39.789Z,76.14
2018-08-11T00:54:40.044Z,76.23
2018-08-11T00:55:40.034Z,76.61
2018-08-11T00:56:39.758Z,76.42
2018-08-11T00:57:39.745Z,76.52
2018-08-11T00:58:39.732Z,76.52
2018-08-11T00:59:39.988Z,77
2018-08-11T01:00:39.975Z,76.81
2018-08-11T01:01:39.964Z,77.58
2018-08-11T01:02:39.953Z,77.67
2018-08-11T01:03:39.940Z,88.82
2018-08-11T01:04:39.679Z,94.78
2018-08-11T01:05:39.923Z,99.99
2018-08-11T01:06:39.907Z,99.99
2018-08-11T01:07:39.906Z,99.99
2018-08-11T01:08:39.891Z,99.99
2018-08-11T01:09:39.881Z,99.99
2018-08-11T01:10:39.874Z,99.99
2018-08-11T01:11:39.854Z,99.99
2018-08-11T01:12:39.580Z,99.44
2018-08-11T01:13:39.841Z,98.77
2018-08-11T01:14:39.820Z,99.3
2018-08-11T01:15:39.814Z,98.53
2018-08-11T01:16:39.797Z,99.58
2018-08-11T01:17:39.523Z,96.61
2018-08-11T01:18:39.778Z,98.63
2018-08-11T01:19:39.816Z,98.14
2018-08-11T01:20:39.495Z,97.96
2018-08-11T01:21:39.479Z,98.63
2018-08-11T01:22:39.734Z,97.86
2018-08-11T01:23:39.463Z,96.94
2018-08-11T01:24:39.445Z,96.08
2018-08-11T01:25:39.698Z,95.12
2018-08-11T01:26:39.690Z,95.5
2018-08-11T01:27:39.678Z,93.77
2018-08-11T01:28:39.666Z,93.49
2018-08-11T01:29:39.393Z,92.48
2018-08-11T01:30:39.638Z,92.68
2018-08-11T01:31:39.634Z,91.42
2018-08-11T01:32:39.356Z,91.33
2018-08-11T01:33:39.616Z,91.91
2018-08-11T01:34:39.603Z,93.92
2018-08-11T01:35:39.586Z,94.49
2018-08-11T01:36:39.576Z,95.65
2018-08-11T01:37:39.298Z,95.46
2018-08-11T01:38:39.551Z,94.88
2018-08-11T01:39:39.278Z,94.64
2018-08-11T01:40:39.266Z,95.21
2018-08-11T01:41:39.250Z,92.54
2018-08-11T01:42:39.241Z,92.15
2018-08-11T01:43:39.495Z,85.34
2018-08-11T01:44:39.221Z,85.53
2018-08-11T01:45:39.473Z,79.49
2018-08-11T01:46:39.201Z,75.04
2018-08-11T01:47:39.182Z,69.2
2018-08-11T01:48:39.169Z,69.1
2018-08-11T01:49:39.424Z,66.99
2018-08-11T01:50:39.145Z,63.13
2018-08-11T01:51:39.398Z,63.51
2018-08-11T01:52:39.388Z,61.5
2018-08-11T01:53:39.111Z,61.69
2018-08-11T01:54:39.368Z,61.31
2018-08-11T01:55:39.087Z,59.2
2018-08-11T01:56:39.385Z,59.2
2018-08-11T01:57:39.061Z,60.16
2018-08-11T01:58:39.320Z,59.77
2018-08-11T01:59:39.306Z,60.83
2018-08-11T02:00:39.024Z,55.56
2018-08-11T02:01:39.012Z,51.44
2018-08-11T02:02:39.263Z,57.19
2018-08-11T02:03:39.253Z,50.29
2018-08-11T02:04:39.245Z,57.45
2018-08-11T02:05:39.229Z,48.35
2018-08-11T02:06:39.215Z,53.42
2018-08-11T02:07:39.224Z,52.47
2018-08-11T02:08:38.925Z,45.09
2018-08-11T02:09:39.176Z,39.35
2018-08-11T02:10:39.169Z,42.22
2018-08-11T02:11:39.148Z,46.62
2018-08-11T02:12:38.876Z,50.07
2018-08-11T02:13:39.130Z,48.44
2018-08-11T02:14:38.849Z,47.58
2018-08-11T02:15:38.836Z,45.17
2018-08-11T02:16:39.090Z,41.46
2018-08-11T02:17:39.074Z,41.74
2018-08-11T02:18:39.062Z,40.12
2018-08-11T02:19:38.793Z,43.44
2018-08-11T02:20:38.777Z,43.35
2018-08-11T02:21:38.764Z,41.91
2018-08-11T02:22:39.016Z,41.91
2018-08-11T02:23:39.001Z,41.44
2018-08-11T02:24:38.802Z,41.72
2018-08-11T02:25:38.709Z,39.72
2018-08-11T02:26:38.701Z,37.23
2018-08-11T02:27:38.950Z,36.46
2018-08-11T02:28:38.671Z,33.2
2018-08-11T02:29:38.923Z,32.82
2018-08-11T02:30:38.933Z,34.06
2018-08-11T02:31:38.632Z,32.63
2018-08-11T02:32:38.888Z,33.78
2018-08-11T02:33:38.867Z,33.87
2018-08-11T02:34:38.860Z,32.44
2018-08-11T02:35:38.855Z,31.01
2018-08-11T02:36:38.569Z,30.72
2018-08-11T02:37:38.823Z,30.15
2018-08-11T02:38:38.808Z,31.29
2018-08-11T02:39:38.802Z,28.61
2018-08-11T02:40:38.516Z,28.42
2018-08-11T02:41:38.769Z,29.38
2018-08-11T02:42:38.754Z,28.22
2018-08-11T02:43:38.750Z,28.9
2018-08-11T02:44:38.739Z,29.17
2018-08-11T02:45:38.714Z,28.12
2018-08-11T02:46:38.438Z,28.02
2018-08-11T02:47:38.426Z,28.41
2018-08-11T02:48:38.676Z,28.04
2018-08-11T02:49:38.664Z,26.68
2018-08-11T02:50:38.382Z,26.5
2018-08-11T02:51:38.632Z,26.87
2018-08-11T02:52:38.360Z,26.68
2018-08-11T02:53:38.604Z,27.16
2018-08-11T02:54:38.330Z,27.83
2018-08-11T02:55:38.633Z,27.45
2018-08-11T02:56:38.307Z,26.59
2018-08-11T02:57:38.557Z,26.01
2018-08-11T02:58:38.275Z,26.5
2018-08-11T02:59:38.260Z,24.68
2018-08-11T03:00:38.252Z,24.49
2018-08-11T03:01:38.234Z,24.77
2018-08-11T03:02:38.720Z,24.49
2018-08-11T03:03:38.208Z,23.82
2018-08-11T03:04:38.202Z,23.72
2018-08-11T03:05:38.446Z,23.05
2018-08-11T03:06:38.436Z,22.96
2018-08-11T03:07:38.157Z,23.43
2018-08-11T03:08:38.413Z,23.05
2018-08-11T03:09:38.130Z,22.96
2018-08-11T03:10:38.384Z,22.85
2018-08-11T03:11:38.371Z,22
2018-08-11T03:12:38.358Z,22.18
2018-08-11T03:13:38.338Z,21.03
2018-08-11T03:14:38.326Z,20.84
2018-08-11T03:15:38.051Z,20.94
2018-08-11T03:16:38.037Z,20.84
2018-08-11T03:17:38.023Z,20.65
2018-08-11T03:18:38.007Z,19.69
2018-08-11T03:19:38.259Z,19.89
2018-08-11T03:20:38.243Z,19.6
2018-08-11T03:21:37.967Z,18.74
2018-08-11T03:22:38.232Z,18.07
2018-08-11T03:23:38.214Z,18.64
2018-08-11T03:24:38.197Z,17.4
2018-08-11T03:25:38.186Z,17.3
2018-08-11T03:26:38.163Z,17.4
2018-08-11T03:27:38.154Z,17.4
2018-08-11T03:28:38.142Z,17.11
2018-08-11T03:29:37.860Z,16.63
2018-08-11T03:30:37.847Z,16.73
2018-08-11T03:31:38.091Z,16.82
2018-08-11T03:32:38.082Z,16.25
2018-08-11T03:33:37.801Z,16.16
2018-08-11T03:34:37.795Z,16.25
2018-08-11T03:35:37.776Z,16.06
2018-08-11T03:36:38.024Z,15.2
2018-08-11T03:37:37.749Z,15.01
2018-08-11T03:38:38.003Z,14.34
2018-08-11T03:39:37.718Z,13.86
2018-08-11T03:40:37.969Z,14.53
2018-08-11T03:41:37.952Z,14.24
2018-08-11T03:42:37.677Z,13.86
2018-08-11T03:43:37.925Z,13.86
2018-08-11T03:44:37.650Z,13.95
2018-08-11T03:45:37.903Z,13.95
2018-08-11T03:46:37.619Z,13.48
2018-08-11T03:47:37.870Z,13.38
2018-08-11T03:48:37.856Z,13.38
2018-08-11T03:49:37.841Z,12.9
2018-08-11T03:50:37.562Z,12.9
2018-08-11T03:51:37.551Z,13.29
2018-08-11T03:52:37.584Z,13
2018-08-11T03:53:37.793Z,12.52
2018-08-11T03:54:37.769Z,12.52
2018-08-11T03:55:37.758Z,12.14
2018-08-11T03:56:37.744Z,11.57
2018-08-11T03:57:37.732Z,11.47
2018-08-11T03:58:37.718Z,11.66
2018-08-11T03:59:37.704Z,11.47
2018-08-11T04:00:37.684Z,11.85
2018-08-11T04:01:37.409Z,11.66
2018-08-11T04:02:37.670Z,11.66
2018-08-11T04:03:37.650Z,12.14
2018-08-11T04:04:37.632Z,11.95
2018-08-11T04:05:37.610Z,11.66
2018-08-11T04:06:37.683Z,11.95
2018-08-11T04:07:37.325Z,12.04
2018-08-11T04:08:37.573Z,11.66
2018-08-11T04:09:37.295Z,11.18
2018-08-11T04:10:37.278Z,11.57
2018-08-11T04:11:37.262Z,11.57
2018-08-11T04:12:37.518Z,11.85
2018-08-11T04:13:37.237Z,11.18
2018-08-11T04:14:37.491Z,11.18
2018-08-11T04:15:37.211Z,10.89
2018-08-11T04:16:37.198Z,10.89
2018-08-11T04:17:37.452Z,11.28
2018-08-11T04:18:37.436Z,11.18
2018-08-11T04:19:37.153Z,11.09
2018-08-11T04:20:37.139Z,10.71
2018-08-11T04:21:37.125Z,9.66
2018-08-11T04:22:37.374Z,10.13
2018-08-11T04:23:37.357Z,10.13
2018-08-11T04:24:37.351Z,10.23
2018-08-11T04:25:37.067Z,10.13
2018-08-11T04:26:37.049Z,10.03
2018-08-11T04:27:37.301Z,9.94
2018-08-11T04:28:37.293Z,9.27
2018-08-11T04:29:37.277Z,9.27
2018-08-11T04:30:37.263Z,9.37
2018-08-11T04:31:37.292Z,9.27
2018-08-11T04:32:37.007Z,9.27
2018-08-11T04:33:36.953Z,9.08
2018-08-11T04:34:36.936Z,9.37
2018-08-11T04:35:36.942Z,9.08
2018-08-11T04:36:37.176Z,9.08
2018-08-11T04:37:36.896Z,8.89
2018-08-11T04:38:36.885Z,8.7
2018-08-11T04:39:36.870Z,8.89
2018-08-11T04:40:36.852Z,8.89
2018-08-11T04:41:37.110Z,8.89
2018-08-11T04:42:36.827Z,8.6
2018-08-11T04:43:36.812Z,8.98
2018-08-11T04:44:37.059Z,8.8
2018-08-11T04:45:37.048Z,8.51
2018-08-11T04:46:37.036Z,8.6
2018-08-11T04:47:36.757Z,8.41
2018-08-11T04:48:36.740Z,8.31
2018-08-11T04:49:36.723Z,7.93
2018-08-11T04:50:36.976Z,8.41
2018-08-11T04:51:36.959Z,8.12
2018-08-11T04:52:36.684Z,8.41
2018-08-11T04:53:36.666Z,8.03
2018-08-11T04:54:36.657Z,8.03
2018-08-11T04:55:36.643Z,8.12
2018-08-11T04:56:36.625Z,8.31
2018-08-11T04:57:36.878Z,8.22
2018-08-11T04:58:36.596Z,8.03
2018-08-11T04:59:36.848Z,8.12
2018-08-11T05:00:36.834Z,8.41
2018-08-11T05:01:36.557Z,8.03
2018-08-11T05:02:36.805Z,7.55
2018-08-11T05:03:36.788Z,7.65
2018-08-11T05:04:36.516Z,7.36
2018-08-11T05:05:36.507Z,7.17
2018-08-11T05:06:36.487Z,7.55
2018-08-11T05:07:36.467Z,7.36
2018-08-11T05:08:36.720Z,7.74
2018-08-11T05:09:36.445Z,7.55
2018-08-11T05:10:36.428Z,7.65
2018-08-11T05:11:36.676Z,7.36
2018-08-11T05:12:36.666Z,7.36
2018-08-11T05:13:36.645Z,7.55
2018-08-11T05:14:36.643Z,7.17
2018-08-11T05:15:36.357Z,7.55
2018-08-11T05:16:36.347Z,7.55
2018-08-11T05:17:36.594Z,7.65
2018-08-11T05:18:36.321Z,7.26
2018-08-11T05:19:36.574Z,7.36
2018-08-11T05:20:36.569Z,7.45
2018-08-11T05:21:36.536Z,6.98
2018-08-11T05:22:36.520Z,7.07
2018-08-11T05:23:36.516Z,7.07
2018-08-11T05:24:36.497Z,7.36
2018-08-11T05:25:36.215Z,7.27
2018-08-11T05:26:36.474Z,7.46
2018-08-11T05:27:36.454Z,7.27
2018-08-11T05:28:36.170Z,7.36
2018-08-11T05:29:36.426Z,7.65
2018-08-11T05:30:36.411Z,7.56
2018-08-11T05:31:36.395Z,7.27
2018-08-11T05:32:36.122Z,7.93
2018-08-11T05:33:36.377Z,8.32
2018-08-11T05:34:36.357Z,8.32
2018-08-11T05:35:36.343Z,8.61
2018-08-11T05:36:36.065Z,8.8
2018-08-11T05:37:36.049Z,9.28
2018-08-11T05:38:36.301Z,8.8
2018-08-11T05:39:36.020Z,9.28
2018-08-11T05:40:36.018Z,9.47
2018-08-11T05:41:36.030Z,9.86
2018-08-11T05:42:36.254Z,10.14
2018-08-11T05:43:36.232Z,10.14
2018-08-11T05:44:35.956Z,10.33
2018-08-11T05:45:36.210Z,10.24
2018-08-11T05:46:35.931Z,10.33
2018-08-11T05:47:36.177Z,10.24
2018-08-11T05:48:35.911Z,10.14
2018-08-11T05:49:35.887Z,9.86
2018-08-11T05:50:35.877Z,10.05
2018-08-11T05:51:36.122Z,10.14
2018-08-11T05:52:36.112Z,11.1
2018-08-11T05:53:35.831Z,10.43
2018-08-11T05:54:36.084Z,11
2018-08-11T05:55:36.067Z,11
2018-08-11T05:56:36.058Z,11.1
2018-08-11T05:57:36.042Z,11.1
2018-08-11T05:58:35.768Z,11.19
2018-08-11T05:59:36.018Z,11.29
2018-08-11T06:00:35.741Z,11.58
2018-08-11T06:01:35.994Z,11.58
2018-08-11T06:02:35.980Z,11.77
2018-08-11T06:03:35.961Z,11.38
2018-08-11T06:04:35.946Z,11.19
2018-08-11T06:05:35.941Z,10.72
2018-08-11T06:06:35.658Z,11.29
2018-08-11T06:07:35.917Z,11.19
2018-08-11T06:08:35.640Z,12.34
2018-08-11T06:09:35.619Z,12.73
2018-08-11T06:10:36.097Z,12.73
2018-08-11T06:11:35.860Z,12.34
2018-08-11T06:12:35.845Z,11.96
2018-08-11T06:13:35.829Z,11.67
2018-08-11T06:14:35.818Z,11.87
2018-08-11T06:15:35.545Z,11.58
2018-08-11T06:16:35.791Z,11.58
2018-08-11T06:17:35.513Z,11.58
2018-08-11T06:18:35.761Z,11.48
2018-08-11T06:19:35.494Z,11
2018-08-11T06:20:35.477Z,11.19
2018-08-11T06:21:35.459Z,11.29
2018-08-11T06:22:35.722Z,11.19
2018-08-11T06:23:35.444Z,11
2018-08-11T06:24:35.694Z,12.44
2018-08-11T06:25:35.412Z,11.77
2018-08-11T06:26:35.665Z,11.58
2018-08-11T06:27:35.653Z,12.63
2018-08-11T06:28:35.639Z,12.63
2018-08-11T06:29:35.358Z,13.88
2018-08-11T06:30:35.606Z,13.11
2018-08-11T06:31:35.384Z,13.4
2018-08-11T06:32:35.319Z,13.4
2018-08-11T06:33:35.574Z,14.07
2018-08-11T06:34:35.560Z,13.98
2018-08-11T06:35:35.290Z,15.32
2018-08-11T06:36:35.474Z,15.61
2018-08-11T06:37:35.517Z,18.19
2018-08-11T06:38:35.243Z,18.76
2018-08-11T06:39:35.491Z,19.05
2018-08-11T06:40:35.618Z,18.48
2018-08-11T06:41:35.469Z,19.25
2018-08-11T06:42:35.197Z,23.47
2018-08-11T06:43:35.444Z,23.27
2018-08-11T06:44:35.163Z,21.94
2018-08-11T06:45:35.416Z,24.23
2018-08-11T06:46:35.161Z,25.29
2018-08-11T06:47:35.126Z,28.55
2018-08-11T06:48:35.116Z,30.73
2018-08-11T06:49:35.104Z,31.23
2018-08-11T06:50:35.358Z,31.32
2018-08-11T06:51:35.078Z,30.75
2018-08-11T06:52:35.065Z,32.76
2018-08-11T06:53:35.314Z,35.35
2018-08-11T06:54:35.303Z,35.44
2018-08-11T06:55:35.478Z,34.67
2018-08-11T06:56:35.286Z,35.16
2018-08-11T06:57:35.270Z,35.16
2018-08-11T06:58:34.991Z,35.73
2018-08-11T06:59:34.983Z,37.36
2018-08-11T07:00:34.963Z,36.3
2018-08-11T07:01:35.217Z,36.49
2018-08-11T07:02:35.207Z,37.36
2018-08-11T07:03:35.196Z,35.73
2018-08-11T07:04:35.181Z,35.92
2018-08-11T07:05:34.905Z,36.11
2018-08-11T07:06:35.362Z,38.51
2018-08-11T07:07:35.145Z,38.51
2018-08-11T07:08:34.871Z,35.73
2018-08-11T07:09:35.121Z,35.63
2018-08-11T07:10:34.843Z,35.53
2018-08-11T07:11:34.830Z,36.49
2018-08-11T07:12:35.085Z,42.82
2018-08-11T07:13:34.810Z,45.4
2018-08-11T07:14:34.796Z,45.98
2018-08-11T07:15:35.047Z,44.16
2018-08-11T07:16:34.766Z,42.34
2018-08-11T07:17:34.753Z,44.83
2018-08-11T07:18:35.005Z,44.06
2018-08-11T07:19:34.730Z,46.19
2018-08-11T07:20:34.717Z,44.56
2018-08-11T07:21:34.976Z,48.4
2018-08-11T07:22:34.691Z,46.1
2018-08-11T07:23:34.945Z,46.77
2018-08-11T07:24:34.669Z,46.58
2018-08-11T07:25:34.919Z,47.25
2018-08-11T07:26:35.152Z,46.86
2018-08-11T07:27:34.636Z,46.19
2018-08-11T07:28:34.622Z,46.77
2018-08-11T07:29:34.874Z,45.33
2018-08-11T07:30:34.871Z,48.59
2018-08-11T07:31:34.856Z,47.15
2018-08-11T07:32:34.573Z,44.85
2018-08-11T07:33:34.562Z,49.38
2018-08-11T07:34:34.815Z,50.43
2018-08-11T07:35:34.803Z,50.05
2018-08-11T07:36:34.917Z,48.23
2018-08-11T07:37:35.053Z,49.38
2018-08-11T07:38:34.503Z,50.73
2018-08-11T07:39:34.820Z,48.61
2018-08-11T07:40:34.482Z,55.62
2018-08-11T07:41:34.465Z,55.9
2018-08-11T07:42:34.721Z,54.75
2018-08-11T07:43:34.449Z,55.52
2018-08-11T07:44:34.432Z,60.99
2018-08-11T07:45:34.688Z,62.23
2018-08-11T07:46:34.410Z,59.26
2018-08-11T07:47:34.765Z,60.7
2018-08-11T07:48:34.440Z,62.9
2018-08-11T07:49:34.375Z,65.11
2018-08-11T07:50:34.644Z,64.63
2018-08-11T07:51:34.351Z,64.25
2018-08-11T07:52:34.338Z,63.03
2018-08-11T07:53:34.594Z,67.83
2018-08-11T07:54:34.314Z,66.49
2018-08-11T07:55:34.305Z,66.74
2018-08-11T07:56:34.293Z,69.36
2018-08-11T07:57:34.290Z,70.13
2018-08-11T07:58:34.270Z,74.73
2018-08-11T07:59:34.520Z,74.64
2018-08-11T08:00:34.246Z,75.7
2018-08-11T08:01:34.510Z,73.68
2018-08-11T08:02:34.233Z,73.39
2018-08-11T08:03:34.478Z,76.37
2018-08-11T08:04:34.465Z,74.26
2018-08-11T08:05:34.452Z,72.85
2018-08-11T08:06:34.188Z,78.13
2018-08-11T08:07:34.429Z,79.47
2018-08-11T08:08:34.424Z,79.19
2018-08-11T08:09:34.411Z,79.28
2018-08-11T08:10:34.406Z,77.75
2018-08-11T08:11:34.388Z,79.34
2018-08-11T08:12:34.375Z,78.7
2018-08-11T08:13:34.425Z,80.05
2018-08-11T08:14:34.361Z,82.93
2018-08-11T08:15:34.079Z,84.47
2018-08-11T08:16:34.064Z,82.59
2018-08-11T08:17:34.055Z,82.01
2018-08-11T08:18:34.318Z,81.82
2018-08-11T08:19:34.042Z,88.35
2018-08-11T08:20:34.294Z,92.77
2018-08-11T08:21:34.013Z,91.13
2018-08-11T08:22:34.266Z,92.48
2018-08-11T08:23:34.255Z,97.09
2018-08-11T08:24:34.247Z,97.09
2018-08-11T08:25:34.241Z,98.53
2018-08-11T08:26:34.887Z,95.84
2018-08-11T08:27:33.950Z,96.8
2018-08-11T08:28:33.936Z,99.99
2018-08-11T08:29:34.189Z,97.28
2018-08-11T08:30:33.914Z,99.3
2018-08-11T08:31:33.911Z,97.57
2018-08-11T08:32:34.162Z,97.28
2018-08-11T08:33:34.151Z,98.48
2018-08-11T08:34:34.140Z,96.22
2018-08-11T08:35:33.863Z,99.99
2018-08-11T08:36:34.318Z,99.99
2018-08-11T08:37:33.850Z,99.99
2018-08-11T08:38:34.102Z,99.99
2018-08-11T08:39:34.093Z,99.99
2018-08-11T08:40:34.080Z,99.99
2018-08-11T08:41:33.807Z,99.99
2018-08-11T08:42:33.793Z,99.99
2018-08-11T08:43:33.783Z,99.99
2018-08-11T08:44:34.037Z,99.99
2018-08-11T08:45:34.029Z,99.99
2018-08-11T08:46:33.754Z,99.99
2018-08-11T08:47:33.834Z,99.99
2018-08-11T08:48:33.999Z,99.99
2018-08-11T08:49:33.720Z,99.99
2018-08-11T08:50:33.974Z,99.99
2018-08-11T08:51:33.966Z,99.99
2018-08-11T08:52:33.953Z,99.99
2018-08-11T08:53:33.951Z,99.99
2018-08-11T08:54:33.674Z,99.99
2018-08-11T08:55:33.927Z,99.99
2018-08-11T08:56:33.649Z,99.99
2018-08-11T08:57:33.645Z,99.99
2018-08-11T08:58:33.898Z,99.99
2018-08-11T08:59:33.619Z,99.99
2018-08-11T09:00:33.873Z,99.99
2018-08-11T09:01:33.864Z,99.99
2018-08-11T09:02:33.590Z,99.99
2018-08-11T09:03:33.845Z,99.99
2018-08-11T09:04:33.828Z,99.99
2018-08-11T09:05:33.827Z,99.99
2018-08-11T09:06:33.553Z,99.99
2018-08-11T09:07:33.800Z,99.99
2018-08-11T09:08:33.527Z,99.99
2018-08-11T09:09:33.785Z,99.99
2018-08-11T09:10:33.507Z,99.99
2018-08-11T09:11:33.765Z,99.99
2018-08-11T09:12:33.755Z,99.99
2018-08-11T09:13:33.479Z,99.99
2018-08-11T09:14:33.733Z,99.99
2018-08-11T09:15:33.462Z,99.99
2018-08-11T09:16:33.720Z,99.99
2018-08-11T09:17:33.439Z,99.99
2018-08-11T09:18:33.693Z,99.99
2018-08-11T09:19:33.941Z,99.99
2018-08-11T09:20:33.679Z,99.99
2018-08-11T09:21:33.667Z,99.99
2018-08-11T09:22:33.658Z,99.99
2018-08-11T09:23:33.647Z,99.99
2018-08-11T09:24:33.372Z,99.99
2018-08-11T09:25:33.627Z,99.99
2018-08-11T09:26:33.351Z,99.99
2018-08-11T09:27:33.347Z,99.99
2018-08-11T09:28:33.601Z,99.99
2018-08-11T09:29:33.592Z,99.99
2018-08-11T09:30:33.578Z,99.99
2018-08-11T09:31:33.569Z,99.99
2018-08-11T09:32:33.557Z,99.99
2018-08-11T09:33:33.548Z,99.99
2018-08-11T09:34:33.546Z,99.99
2018-08-11T09:35:33.525Z,99.99
2018-08-11T09:36:33.255Z,99.99
2018-08-11T09:37:33.246Z,99.99
2018-08-11T09:38:33.664Z,99.99
2018-08-11T09:39:33.225Z,99.99
2018-08-11T09:40:33.480Z,99.99
2018-08-11T09:41:33.472Z,99.99
2018-08-11T09:42:33.463Z,99.99
2018-08-11T09:43:33.189Z,99.99
2018-08-11T09:44:33.182Z,99.99
2018-08-11T09:45:33.433Z,99.99
2018-08-11T09:46:33.160Z,99.99
2018-08-11T09:47:33.147Z,99.99
2018-08-11T09:48:33.140Z,99.99
2018-08-11T09:49:33.394Z,99.99
2018-08-11T09:50:33.122Z,99.99
2018-08-11T09:51:33.370Z,97.57
2018-08-11T09:52:33.096Z,95.94
2018-08-11T09:53:33.096Z,94.06
2018-08-11T09:54:33.077Z,97.24
2018-08-11T09:55:33.333Z,98.58
2018-08-11T09:56:33.327Z,98.14
2018-08-11T09:57:33.054Z,98.44
2018-08-11T09:58:33.038Z,99.88
2018-08-11T09:59:33.303Z,99.99
2018-08-11T10:00:33.286Z,96.89
2018-08-11T10:01:33.281Z,98.39
2018-08-11T10:02:33.265Z,98.19
2018-08-11T10:03:33.266Z,97.62
2018-08-11T10:04:32.988Z,99.99
2018-08-11T10:05:33.246Z,99.99
2018-08-11T10:06:33.235Z,99.99
2018-08-11T10:07:32.962Z,99.99
2018-08-11T10:08:32.945Z,99.99
2018-08-11T10:09:33.198Z,99.99
2018-08-11T10:10:32.973Z,99.99
2018-08-11T10:11:33.181Z,99.99
2018-08-11T10:12:32.904Z,99.99
2018-08-11T10:13:32.895Z,99.99
2018-08-11T10:14:32.886Z,99.99
2018-08-11T10:15:33.141Z,99.99
2018-08-11T10:16:32.873Z,99.99
2018-08-11T10:17:33.129Z,92.18
2018-08-11T10:18:33.263Z,91.03
2018-08-11T10:19:33.113Z,83.23
2018-08-11T10:20:33.098Z,83.23
2018-08-11T10:21:33.085Z,83.37
2018-08-11T10:22:32.814Z,85.06
2018-08-11T10:23:33.066Z,85.44
2018-08-11T10:24:32.789Z,85.83
2018-08-11T10:25:32.778Z,87.27
2018-08-11T10:26:33.042Z,87.95
2018-08-11T10:27:32.762Z,88.62
2018-08-11T10:28:32.757Z,85.93
2018-08-11T10:29:32.747Z,84.43
2018-08-11T10:30:33.002Z,81.58
2018-08-11T10:31:32.994Z,79.41
2018-08-11T10:32:32.986Z,77.76
2018-08-11T10:33:32.977Z,79.21
2018-08-11T10:34:32.968Z,79.69
2018-08-11T10:35:32.696Z,79.21
2018-08-11T10:36:32.891Z,80.62
2018-08-11T10:37:32.944Z,80.33
2018-08-11T10:38:32.935Z,80.68
2018-08-11T10:39:32.927Z,81.25
2018-08-11T10:40:32.658Z,82.41
2018-08-11T10:41:32.913Z,83.42
2018-08-11T10:42:32.639Z,85.06
2018-08-11T10:43:32.901Z,81.83
2018-08-11T10:44:32.628Z,79.08
2018-08-11T10:45:32.884Z,76.26
2018-08-11T10:46:32.613Z,72.67
2018-08-11T10:47:32.876Z,71.06
2018-08-11T10:48:32.867Z,68.88
2018-08-11T10:49:32.866Z,67.75
2018-08-11T10:50:32.850Z,65.75
2018-08-11T10:51:32.586Z,64.72
2018-08-11T10:52:32.578Z,62.75
2018-08-11T10:53:32.572Z,62.4
2018-08-11T10:54:32.572Z,63.31
2018-08-11T10:55:32.832Z,65.17
2018-08-11T10:56:32.826Z,67.62
2018-08-11T10:57:32.821Z,69.52
2018-08-11T10:58:32.552Z,70.23
2018-08-11T10:59:32.556Z,67.21
2018-08-11T11:00:32.556Z,64.04
2018-08-11T11:01:32.547Z,63.01
2018-08-11T11:02:32.813Z,62.66
2018-08-11T11:03:32.811Z,64.04
2018-08-11T11:04:33.006Z,65.08
2018-08-11T11:05:32.805Z,65.72
2018-08-11T11:06:32.534Z,66.66
2018-08-11T11:07:32.796Z,67.49
2018-08-11T11:08:33.031Z,67.4
2018-08-11T11:09:32.521Z,67.49
2018-08-11T11:10:32.789Z,67.27
2018-08-11T11:11:32.514Z,65.53
2018-08-11T11:12:32.514Z,65.01
2018-08-11T11:13:32.510Z,65.95
2018-08-11T11:14:32.504Z,68.52
2018-08-11T11:15:32.503Z,70.06
2018-08-11T11:16:32.769Z,70.9
2018-08-11T11:17:32.755Z,70.48
2018-08-11T11:18:32.758Z,70.67
2018-08-11T11:19:32.485Z,70.09
2018-08-11T11:20:32.488Z,70.96
2018-08-11T11:21:32.747Z,69.8
2018-08-11T11:22:32.736Z,66.94
2018-08-11T11:23:32.731Z,65.82
2018-08-11T11:24:32.733Z,64.92
2018-08-11T11:25:32.732Z,64.08
2018-08-11T11:26:32.457Z,64.95
2018-08-11T11:27:32.714Z,65.2
2018-08-11T11:28:32.715Z,64.18
2018-08-11T11:29:32.710Z,63.73
2018-08-11T11:30:32.705Z,63.76
2018-08-11T11:31:32.708Z,63.95
2018-08-11T11:32:32.708Z,65.47
2018-08-11T11:33:32.699Z,65.34
2018-08-11T11:34:32.700Z,65.43
2018-08-11T11:35:32.688Z,66.08
2018-08-11T11:36:32.429Z,66.17
2018-08-11T11:37:32.430Z,66.14
2018-08-11T11:38:32.683Z,66.43
2018-08-11T11:39:32.427Z,66.69
2018-08-11T11:40:32.683Z,66.97
2018-08-11T11:41:32.422Z,66.78
2018-08-11T11:42:32.666Z,65.91
2018-08-11T11:43:32.663Z,67.11
2018-08-11T11:44:32.658Z,66.85
2018-08-11T11:45:32.494Z,64.5
2018-08-11T11:46:32.657Z,63.08
2018-08-11T11:47:32.383Z,63.18
2018-08-11T11:48:32.643Z,63.34
2018-08-11T11:49:32.375Z,63.34
2018-08-11T11:50:32.644Z,63.14
2018-08-11T11:51:32.628Z,63.4
2018-08-11T11:52:32.630Z,63.66
2018-08-11T11:53:32.627Z,64.14
2018-08-11T11:54:32.359Z,64.43
2018-08-11T11:55:32.616Z,64.05
2018-08-11T11:56:32.611Z,63.37
2018-08-11T11:57:32.613Z,63.85
2018-08-11T11:58:32.602Z,63.37
2018-08-11T11:59:32.336Z,63.56
2018-08-11T12:00:32.333Z,63.28
2018-08-11T12:01:32.330Z,64.05
2018-08-11T12:02:32.588Z,63.76
2018-08-11T12:03:32.326Z,63.47
2018-08-11T12:04:32.577Z,64.24
2018-08-11T12:05:32.574Z,63.76
2018-08-11T12:06:32.568Z,64.14
2018-08-11T12:07:32.570Z,63.28
2018-08-11T12:08:32.563Z,62.53
2018-08-11T12:09:32.555Z,59.21
2018-08-11T12:10:32.553Z,57.71
2018-08-11T12:11:32.545Z,57.33
2018-08-11T12:12:32.281Z,58.85
2018-08-11T12:13:32.534Z,59.69
2018-08-11T12:14:32.533Z,60.05
2018-08-11T12:15:32.534Z,60.08
2018-08-11T12:16:32.263Z,60.01
2018-08-11T12:17:32.532Z,57.94
2018-08-11T12:18:32.262Z,57
2018-08-11T12:19:32.722Z,57.45
2018-08-11T12:20:32.255Z,56.87
2018-08-11T12:21:32.514Z,56.36
2018-08-11T12:22:32.508Z,54.43
2018-08-11T12:23:32.520Z,56.46
2018-08-11T12:24:32.242Z,56.36
2018-08-11T12:25:32.502Z,57.59
2018-08-11T12:26:32.497Z,59.36
2018-08-11T12:27:32.502Z,57.14
2018-08-11T12:28:32.229Z,57.98
2018-08-11T12:29:32.492Z,57.5
2018-08-11T12:30:32.486Z,58.72
2018-08-11T12:31:32.488Z,57.37
2018-08-11T12:32:32.497Z,57.95
2018-08-11T12:33:32.211Z,58.5
2018-08-11T12:34:32.207Z,59.34
2018-08-11T12:35:32.482Z,59.76
2018-08-11T12:36:32.666Z,57.28
2018-08-11T12:37:32.201Z,56.46
2018-08-11T12:38:32.205Z,56.39
2018-08-11T12:39:32.478Z,54.67
2018-08-11T12:40:32.455Z,54.96
2018-08-11T12:41:32.186Z,54.06
2018-08-11T12:42:32.452Z,54.03
2018-08-11T12:43:32.183Z,54.88
2018-08-11T12:44:32.180Z,55.36
2018-08-11T12:45:32.214Z,56.7
2018-08-11T12:46:32.170Z,57.46
2018-08-11T12:47:32.173Z,57.08
2018-08-11T12:48:32.173Z,57.46
2018-08-11T12:49:32.433Z,58.12
2018-08-11T12:50:32.157Z,58.24
2018-08-11T12:51:32.418Z,59.79
2018-08-11T12:52:32.425Z,57.11
2018-08-11T12:53:32.188Z,56.94
2018-08-11T12:54:32.160Z,55.44
2018-08-11T12:55:32.413Z,53.92
2018-08-11T12:56:32.417Z,54.19
2018-08-11T12:57:32.147Z,53.24